sensor_id;sensor_type;location;lat;lon;timestamp;pressure;altitude;pressure_sealevel;temperature;humidity
66945;BME280;53853;51.982;5.928;2023-04-02T00:01:46;101039.69;;;7.31;84.29
66945;BME280;53853;51.982;5.928;2023-04-02T00:04:21;101040.50;;;7.32;84.68
66945;BME280;53853;51.982;5.928;2023-04-02T00:07:16;101045.09;;;7.30;84.42
66945;BME280;53853;51.982;5.928;2023-04-02T00:09:56;101052.31;;;7.28;84.15
66945;BME280;53853;51.982;5.928;2023-04-02T00:12:26;101048.97;;;7.25;84.42
66945;BME280;53853;51.982;5.928;2023-04-02T00:14:56;101052.44;;;7.26;83.62
66945;BME280;53853;51.982;5.928;2023-04-02T00:17:26;101061.38;;;7.25;83.86
66945;BME280;53853;51.982;5.928;2023-04-02T00:20:01;101070.16;;;7.25;84.08
66945;BME280;53853;51.982;5.928;2023-04-02T00:22:34;101083.41;;;7.25;83.96
66945;BME280;53853;51.982;5.928;2023-04-02T00:25:13;101081.00;;;7.22;83.44
66945;BME280;53853;51.982;5.928;2023-04-02T00:27:43;101079.19;;;7.23;83.73
66945;BME280;53853;51.982;5.928;2023-04-02T00:30:13;101086.19;;;7.24;83.96
66945;BME280;53853;51.982;5.928;2023-04-02T00:32:45;101084.63;;;7.21;83.14
66945;BME280;53853;51.982;5.928;2023-04-02T00:35:24;101091.50;;;7.24;83.52
66945;BME280;53853;51.982;5.928;2023-04-02T00:37:56;101100.28;;;7.24;83.00
66945;BME280;53853;51.982;5.928;2023-04-02T00:40:28;101104.50;;;7.27;83.36
66945;BME280;53853;51.982;5.928;2023-04-02T00:42:59;101105.47;;;7.26;82.73
66945;BME280;53853;51.982;5.928;2023-04-02T00:45:33;101112.69;;;7.24;83.24
66945;BME280;53853;51.982;5.928;2023-04-02T00:48:20;101115.47;;;7.22;82.84
66945;BME280;53853;51.982;5.928;2023-04-02T00:50:56;101116.31;;;7.23;83.49
66945;BME280;53853;51.982;5.928;2023-04-02T00:53:28;101112.69;;;7.24;83.94
66945;BME280;53853;51.982;5.928;2023-04-02T00:55:59;101120.78;;;7.22;83.45
66945;BME280;53853;51.982;5.928;2023-04-02T00:58:33;101122.72;;;7.20;83.03
66945;BME280;53853;51.982;5.928;2023-04-02T01:01:13;101124.63;;;7.18;81.25
66945;BME280;53853;51.982;5.928;2023-04-02T01:03:53;101137.16;;;7.16;82.03
66945;BME280;53853;51.982;5.928;2023-04-02T01:06:29;101146.91;;;7.16;82.54
66945;BME280;53853;51.982;5.928;2023-04-02T01:09:14;101153.06;;;7.16;82.94
66945;BME280;53853;51.982;5.928;2023-04-02T01:12:08;101158.34;;;7.16;83.08
66945;BME280;53853;51.982;5.928;2023-04-02T01:14:48;101160.19;;;7.16;83.20
66945;BME280;53853;51.982;5.928;2023-04-02T01:17:34;101164.88;;;7.12;82.01
66945;BME280;53853;51.982;5.928;2023-04-02T01:23:27;101163.19;;;7.11;82.73
66945;BME280;53853;51.982;5.928;2023-04-02T01:26:04;101162.34;;;7.11;82.07
66945;BME280;53853;51.982;5.928;2023-04-02T01:29:11;101173.66;;;7.13;82.79
66945;BME280;53853;51.982;5.928;2023-04-02T01:31:44;101178.13;;;7.12;82.77
66945;BME280;53853;51.982;5.928;2023-04-02T01:34:16;101192.44;;;7.10;81.88
66945;BME280;53853;51.982;5.928;2023-04-02T01:36:57;101195.44;;;7.05;81.45
66945;BME280;53853;51.982;5.928;2023-04-02T01:39:41;101199.16;;;7.02;81.89
66945;BME280;53853;51.982;5.928;2023-04-02T01:42:20;101206.53;;;6.99;82.17
66945;BME280;53853;51.982;5.928;2023-04-02T01:45:00;101215.31;;;6.99;82.25
66945;BME280;53853;51.982;5.928;2023-04-02T01:47:31;101220.59;;;6.99;81.79
66945;BME280;53853;51.982;5.928;2023-04-02T01:50:04;101222.41;;;6.99;81.34
66945;BME280;53853;51.982;5.928;2023-04-02T01:52:38;101224.22;;;6.98;81.34
66945;BME280;53853;51.982;5.928;2023-04-02T01:55:12;101222.78;;;6.94;79.67
66945;BME280;53853;51.982;5.928;2023-04-02T01:57:44;101233.59;;;6.91;80.30
66945;BME280;53853;51.982;5.928;2023-04-02T02:00:19;101232.88;;;6.89;80.04
66945;BME280;53853;51.982;5.928;2023-04-02T02:02:53;101248.88;;;6.87;80.22
66945;BME280;53853;51.982;5.928;2023-04-02T02:05:23;101235.88;;;6.84;79.72
66945;BME280;53853;51.982;5.928;2023-04-02T02:07:56;101247.31;;;6.85;80.60
66945;BME280;53853;51.982;5.928;2023-04-02T02:10:32;101242.22;;;6.82;79.59
66945;BME280;53853;51.982;5.928;2023-04-02T02:13:03;101249.94;;;6.85;80.95
66945;BME280;53853;51.982;5.928;2023-04-02T02:15:35;101255.25;;;6.85;81.30
66945;BME280;53853;51.982;5.928;2023-04-02T02:18:06;101263.19;;;6.85;81.37
66945;BME280;53853;51.982;5.928;2023-04-02T02:20:36;101272.84;;;6.86;81.55
66945;BME280;53853;51.982;5.928;2023-04-02T02:23:06;101277.31;;;6.85;80.82
66945;BME280;53853;51.982;5.928;2023-04-02T02:25:37;101284.63;;;6.82;80.83
66945;BME280;53853;51.982;5.928;2023-04-02T02:28:09;101284.50;;;6.83;81.14
66945;BME280;53853;51.982;5.928;2023-04-02T02:30:46;101287.16;;;6.83;81.32
66945;BME280;53853;51.982;5.928;2023-04-02T02:33:20;101294.16;;;6.84;81.69
66945;BME280;53853;51.982;5.928;2023-04-02T02:35:57;101304.03;;;6.82;80.78
66945;BME280;53853;51.982;5.928;2023-04-02T02:38:52;101304.25;;;6.79;80.16
66945;BME280;53853;51.982;5.928;2023-04-02T02:41:43;101311.94;;;6.71;79.88
66945;BME280;53853;51.982;5.928;2023-04-02T02:44:19;101311.06;;;6.70;80.82
66945;BME280;53853;51.982;5.928;2023-04-02T02:46:55;101316.19;;;6.61;78.93
66945;BME280;53853;51.982;5.928;2023-04-02T02:49:31;101319.06;;;6.58;79.68
66945;BME280;53853;51.982;5.928;2023-04-02T02:52:15;101327.22;;;6.55;80.32
66945;BME280;53853;51.982;5.928;2023-04-02T02:55:08;101330.00;;;6.53;80.31
66945;BME280;53853;51.982;5.928;2023-04-02T02:57:54;101346.00;;;6.51;80.51
66945;BME280;53853;51.982;5.928;2023-04-02T03:00:30;101348.75;;;6.50;79.18
66945;BME280;53853;51.982;5.928;2023-04-02T03:03:07;101348.84;;;6.48;79.57
66945;BME280;53853;51.982;5.928;2023-04-02T03:05:40;101355.22;;;6.46;80.10
66945;BME280;53853;51.982;5.928;2023-04-02T03:08:21;101354.47;;;6.44;80.80
66945;BME280;53853;51.982;5.928;2023-04-02T03:10:57;101366.66;;;6.46;81.49
66945;BME280;53853;51.982;5.928;2023-04-02T03:13:31;101371.22;;;6.44;79.98
66945;BME280;53853;51.982;5.928;2023-04-02T03:16:09;101383.59;;;6.44;80.30
66945;BME280;53853;51.982;5.928;2023-04-02T03:18:47;101377.47;;;6.43;80.22
66945;BME280;53853;51.982;5.928;2023-04-02T03:21:26;101385.41;;;6.43;80.61
66945;BME280;53853;51.982;5.928;2023-04-02T03:24:00;101382.53;;;6.46;81.37
66945;BME280;53853;51.982;5.928;2023-04-02T03:26:33;101391.22;;;6.48;81.40
66945;BME280;53853;51.982;5.928;2023-04-02T03:29:13;101396.50;;;6.48;81.72
66945;BME280;53853;51.982;5.928;2023-04-02T03:31:47;101398.84;;;6.53;82.32
66945;BME280;53853;51.982;5.928;2023-04-02T03:34:24;101409.31;;;6.55;82.32
66945;BME280;53853;51.982;5.928;2023-04-02T03:36:58;101414.50;;;6.56;82.33
66945;BME280;53853;51.982;5.928;2023-04-02T03:39:30;101417.16;;;6.56;82.91
66945;BME280;53853;51.982;5.928;2023-04-02T03:42:06;101417.47;;;6.51;82.33
66945;BME280;53853;51.982;5.928;2023-04-02T03:44:42;101425.41;;;6.51;82.20
66945;BME280;53853;51.982;5.928;2023-04-02T03:47:17;101429.88;;;6.51;81.60
66945;BME280;53853;51.982;5.928;2023-04-02T03:49:56;101443.34;;;6.48;80.02
66945;BME280;53853;51.982;5.928;2023-04-02T03:52:29;101452.34;;;6.45;80.06
66945;BME280;53853;51.982;5.928;2023-04-02T03:55:08;101462.19;;;6.43;80.51
66945;BME280;53853;51.982;5.928;2023-04-02T03:57:46;101457.94;;;6.41;78.82
66945;BME280;53853;51.982;5.928;2023-04-02T04:00:28;101483.69;;;6.39;79.82
66945;BME280;53853;51.982;5.928;2023-04-02T04:03:08;101476.94;;;6.34;77.08
66945;BME280;53853;51.982;5.928;2023-04-02T04:05:48;101474.72;;;6.28;78.18
66945;BME280;53853;51.982;5.928;2023-04-02T04:08:24;101478.41;;;6.26;78.84
66945;BME280;53853;51.982;5.928;2023-04-02T04:10:57;101487.38;;;6.23;78.89
66945;BME280;53853;51.982;5.928;2023-04-02T04:13:35;101488.38;;;6.22;77.51
66945;BME280;53853;51.982;5.928;2023-04-02T04:16:12;101495.44;;;6.22;77.62
66945;BME280;53853;51.982;5.928;2023-04-02T04:18:50;101493.97;;;6.18;77.79
66945;BME280;53853;51.982;5.928;2023-04-02T04:21:28;101518.00;;;6.14;78.38
66945;BME280;53853;51.982;5.928;2023-04-02T04:24:17;101512.91;;;6.11;78.43
66945;BME280;53853;51.982;5.928;2023-04-02T04:26:55;101530.50;;;6.12;79.03
66945;BME280;53853;51.982;5.928;2023-04-02T04:29:38;101530.28;;;6.15;79.86
66945;BME280;53853;51.982;5.928;2023-04-02T04:32:23;101542.34;;;6.20;79.87
66945;BME280;53853;51.982;5.928;2023-04-02T04:35:04;101536.31;;;6.18;79.07
66945;BME280;53853;51.982;5.928;2023-04-02T04:37:40;101547.00;;;6.16;79.54
66945;BME280;53853;51.982;5.928;2023-04-02T04:40:19;101550.69;;;6.13;78.88
66945;BME280;53853;51.982;5.928;2023-04-02T04:43:00;101565.09;;;6.09;77.15
66945;BME280;53853;51.982;5.928;2023-04-02T04:45:40;101561.06;;;6.04;75.60
66945;BME280;53853;51.982;5.928;2023-04-02T04:48:17;101573.66;;;6.00;76.57
66945;BME280;53853;51.982;5.928;2023-04-02T04:50:53;101580.16;;;5.94;74.26
66945;BME280;53853;51.982;5.928;2023-04-02T04:53:30;101596.53;;;5.87;73.08
66945;BME280;53853;51.982;5.928;2023-04-02T04:56:03;101594.59;;;5.76;73.45
66945;BME280;53853;51.982;5.928;2023-04-02T04:58:44;101601.97;;;5.71;74.11
66945;BME280;53853;51.982;5.928;2023-04-02T05:01:17;101616.25;;;5.68;75.30
66945;BME280;53853;51.982;5.928;2023-04-02T05:03:55;101624.38;;;5.65;74.59
66945;BME280;53853;51.982;5.928;2023-04-02T05:06:36;101627.59;;;5.56;73.21
66945;BME280;53853;51.982;5.928;2023-04-02T05:09:17;101641.22;;;5.50;73.68
66945;BME280;53853;51.982;5.928;2023-04-02T05:12:02;101641.41;;;5.47;73.70
66945;BME280;53853;51.982;5.928;2023-04-02T05:14:37;101646.88;;;5.43;74.71
66945;BME280;53853;51.982;5.928;2023-04-02T05:17:13;101658.53;;;5.41;73.54
66945;BME280;53853;51.982;5.928;2023-04-02T05:19:49;101664.84;;;5.38;73.52
66945;BME280;53853;51.982;5.928;2023-04-02T05:22:26;101672.03;;;5.36;73.72
66945;BME280;53853;51.982;5.928;2023-04-02T05:25:12;101682.88;;;5.32;74.32
66945;BME280;53853;51.982;5.928;2023-04-02T05:27:46;101682.97;;;5.30;73.68
66945;BME280;53853;51.982;5.928;2023-04-02T05:30:46;101684.84;;;5.28;73.86
66945;BME280;53853;51.982;5.928;2023-04-02T05:33:25;101682.97;;;5.30;75.19
66945;BME280;53853;51.982;5.928;2023-04-02T05:36:01;101697.78;;;5.33;75.39
66945;BME280;53853;51.982;5.928;2023-04-02T05:38:42;101707.69;;;5.29;74.64
66945;BME280;53853;51.982;5.928;2023-04-02T05:41:23;101707.03;;;5.25;74.71
66945;BME280;53853;51.982;5.928;2023-04-02T05:44:04;101700.81;;;5.26;75.25
66945;BME280;53853;51.982;5.928;2023-04-02T05:46:42;101713.91;;;5.28;75.03
66945;BME280;53853;51.982;5.928;2023-04-02T05:49:19;101715.72;;;5.28;74.52
66945;BME280;53853;51.982;5.928;2023-04-02T05:51:55;101722.06;;;5.25;74.54
66945;BME280;53853;51.982;5.928;2023-04-02T05:54:30;101729.19;;;5.23;74.99
66945;BME280;53853;51.982;5.928;2023-04-02T05:57:08;101729.88;;;5.26;75.80
66945;BME280;53853;51.982;5.928;2023-04-02T05:59:42;101740.25;;;5.30;74.89
66945;BME280;53853;51.982;5.928;2023-04-02T06:02:21;101743.75;;;5.30;74.70
66945;BME280;53853;51.982;5.928;2023-04-02T06:04:55;101743.84;;;5.29;72.97
66945;BME280;53853;51.982;5.928;2023-04-02T06:07:33;101748.47;;;5.25;72.96
66945;BME280;53853;51.982;5.928;2023-04-02T06:10:16;101745.78;;;5.11;70.67
66945;BME280;53853;51.982;5.928;2023-04-02T06:12:53;101756.66;;;5.06;71.73
66945;BME280;53853;51.982;5.928;2023-04-02T06:15:26;101774.47;;;5.02;72.96
66945;BME280;53853;51.982;5.928;2023-04-02T06:18:07;101778.81;;;5.03;73.00
66945;BME280;53853;51.982;5.928;2023-04-02T06:20:41;101784.19;;;5.02;72.48
66945;BME280;53853;51.982;5.928;2023-04-02T06:23:14;101786.16;;;4.98;71.03
66945;BME280;53853;51.982;5.928;2023-04-02T06:25:52;101799.28;;;5.00;71.27
66945;BME280;53853;51.982;5.928;2023-04-02T06:28:30;101803.22;;;4.93;71.32
66945;BME280;53853;51.982;5.928;2023-04-02T06:31:08;101813.19;;;4.87;71.46
66945;BME280;53853;51.982;5.928;2023-04-02T06:33:39;101818.91;;;4.80;71.17
66945;BME280;53853;51.982;5.928;2023-04-02T06:36:09;101824.38;;;4.77;72.34
66945;BME280;53853;51.982;5.928;2023-04-02T06:38:41;101829.47;;;4.80;73.14
66945;BME280;53853;51.982;5.928;2023-04-02T06:41:16;101839.03;;;4.82;72.87
66945;BME280;53853;51.982;5.928;2023-04-02T06:44:22;101844.16;;;4.85;74.15
66945;BME280;53853;51.982;5.928;2023-04-02T06:46:56;101844.81;;;4.89;74.78
66945;BME280;53853;51.982;5.928;2023-04-02T06:49:33;101853.56;;;4.89;71.66
66945;BME280;53853;51.982;5.928;2023-04-02T06:52:14;101869.69;;;4.85;71.56
66945;BME280;53853;51.982;5.928;2023-04-02T06:54:46;101882.38;;;4.78;71.08
66945;BME280;53853;51.982;5.928;2023-04-02T06:57:17;101873.00;;;4.72;69.94
66945;BME280;53853;51.982;5.928;2023-04-02T06:59:51;101881.81;;;4.73;70.78
66945;BME280;53853;51.982;5.928;2023-04-02T07:02:29;101878.22;;;4.74;70.87
66945;BME280;53853;51.982;5.928;2023-04-02T07:05:04;101884.94;;;4.80;71.73
66945;BME280;53853;51.982;5.928;2023-04-02T07:07:36;101893.53;;;4.83;72.23
66945;BME280;53853;51.982;5.928;2023-04-02T07:10:10;101895.16;;;4.86;70.32
66945;BME280;53853;51.982;5.928;2023-04-02T07:12:40;101908.28;;;4.87;71.15
66945;BME280;53853;51.982;5.928;2023-04-02T07:15:14;101900.03;;;4.94;72.13
66945;BME280;53853;51.982;5.928;2023-04-02T07:17:45;101907.44;;;5.03;72.48
66945;BME280;53853;51.982;5.928;2023-04-02T07:20:24;101924.44;;;5.13;70.18
66945;BME280;53853;51.982;5.928;2023-04-02T07:22:57;101927.56;;;5.20;71.19
66945;BME280;53853;51.982;5.928;2023-04-02T07:25:26;101928.38;;;5.22;71.11
66945;BME280;53853;51.982;5.928;2023-04-02T07:27:56;101932.50;;;5.26;72.07
66945;BME280;53853;51.982;5.928;2023-04-02T07:30:29;101943.75;;;5.30;72.29
66945;BME280;53853;51.982;5.928;2023-04-02T07:32:59;101942.66;;;5.34;71.86
66945;BME280;53853;51.982;5.928;2023-04-02T07:35:29;101942.97;;;5.43;72.26
66945;BME280;53853;51.982;5.928;2023-04-02T07:38:00;101952.53;;;5.46;71.90
66945;BME280;53853;51.982;5.928;2023-04-02T07:40:30;101958.28;;;5.53;72.28
66945;BME280;53853;51.982;5.928;2023-04-02T07:43:00;101961.78;;;5.53;68.18
66945;BME280;53853;51.982;5.928;2023-04-02T07:45:32;101970.75;;;5.51;69.00
66945;BME280;53853;51.982;5.928;2023-04-02T07:48:05;101961.88;;;5.52;69.56
66945;BME280;53853;51.982;5.928;2023-04-02T07:50:35;101970.31;;;5.58;70.79
66945;BME280;53853;51.982;5.928;2023-04-02T07:53:05;101970.16;;;5.61;70.06
66945;BME280;53853;51.982;5.928;2023-04-02T07:55:35;101978.56;;;5.68;71.13
66945;BME280;53853;51.982;5.928;2023-04-02T07:58:05;101972.91;;;5.74;70.64
66945;BME280;53853;51.982;5.928;2023-04-02T08:00:38;101981.16;;;5.84;71.27
66945;BME280;53853;51.982;5.928;2023-04-02T08:03:08;101984.09;;;5.94;70.17
66945;BME280;53853;51.982;5.928;2023-04-02T08:05:38;101984.94;;;5.94;68.74
66945;BME280;53853;51.982;5.928;2023-04-02T08:08:08;101991.03;;;5.96;70.37
66945;BME280;53853;51.982;5.928;2023-04-02T08:10:38;101986.00;;;5.92;68.82
66945;BME280;53853;51.982;5.928;2023-04-02T08:13:08;101996.75;;;5.89;68.96
66945;BME280;53853;51.982;5.928;2023-04-02T08:15:40;102010.91;;;5.88;68.90
66945;BME280;53853;51.982;5.928;2023-04-02T08:18:11;102015.19;;;5.90;68.26
66945;BME280;53853;51.982;5.928;2023-04-02T08:20:40;102021.31;;;5.91;69.58
66945;BME280;53853;51.982;5.928;2023-04-02T08:23:14;102016.88;;;5.91;67.61
66945;BME280;53853;51.982;5.928;2023-04-02T08:25:44;102024.53;;;5.96;69.59
66945;BME280;53853;51.982;5.928;2023-04-02T08:28:14;102027.59;;;6.04;70.47
66945;BME280;53853;51.982;5.928;2023-04-02T08:30:47;102036.78;;;5.98;66.96
66945;BME280;53853;51.982;5.928;2023-04-02T08:33:18;102050.09;;;5.97;67.29
66945;BME280;53853;51.982;5.928;2023-04-02T08:35:49;102052.56;;;6.00;68.97
66945;BME280;53853;51.982;5.928;2023-04-02T08:38:21;102051.34;;;6.06;67.12
66945;BME280;53853;51.982;5.928;2023-04-02T08:40:52;102062.09;;;6.03;68.09
66945;BME280;53853;51.982;5.928;2023-04-02T08:46:44;102064.13;;;6.13;70.82
66945;BME280;53853;51.982;5.928;2023-04-02T08:49:19;102063.31;;;6.27;71.62
66945;BME280;53853;51.982;5.928;2023-04-02T08:51:52;102068.16;;;6.35;70.06
66945;BME280;53853;51.982;5.928;2023-04-02T08:54:26;102079.78;;;6.47;68.65
66945;BME280;53853;51.982;5.928;2023-04-02T08:57:00;102087.25;;;6.40;66.28
66945;BME280;53853;51.982;5.928;2023-04-02T08:59:34;102086.13;;;6.30;65.33
66945;BME280;53853;51.982;5.928;2023-04-02T09:02:22;102098.56;;;6.28;65.17
66945;BME280;53853;51.982;5.928;2023-04-02T09:04:54;102107.28;;;6.30;66.83
66945;BME280;53853;51.982;5.928;2023-04-02T09:07:26;102111.25;;;6.37;67.76
66945;BME280;53853;51.982;5.928;2023-04-02T09:09:59;102117.38;;;6.53;68.36
66945;BME280;53853;51.982;5.928;2023-04-02T09:12:31;102124.47;;;6.67;68.17
66945;BME280;53853;51.982;5.928;2023-04-02T09:15:20;102120.41;;;6.76;64.37
66945;BME280;53853;51.982;5.928;2023-04-02T09:17:57;102123.06;;;6.76;64.74
66945;BME280;53853;51.982;5.928;2023-04-02T09:20:29;102123.34;;;6.71;63.50
66945;BME280;53853;51.982;5.928;2023-04-02T09:22:59;102133.84;;;6.73;64.48
66945;BME280;53853;51.982;5.928;2023-04-02T09:25:30;102132.50;;;6.80;65.01
66945;BME280;53853;51.982;5.928;2023-04-02T09:28:02;102132.84;;;6.90;65.15
66945;BME280;53853;51.982;5.928;2023-04-02T09:30:42;102132.94;;;7.03;66.52
66945;BME280;53853;51.982;5.928;2023-04-02T09:33:40;102134.22;;;7.10;62.01
66945;BME280;53853;51.982;5.928;2023-04-02T09:36:35;102131.50;;;7.12;64.44
66945;BME280;53853;51.982;5.928;2023-04-02T09:39:14;102138.13;;;7.19;67.03
66945;BME280;53853;51.982;5.928;2023-04-02T09:41:45;102144.06;;;7.22;66.45
66945;BME280;53853;51.982;5.928;2023-04-02T09:44:22;102154.41;;;7.27;64.58
66945;BME280;53853;51.982;5.928;2023-04-02T09:46:54;102152.50;;;7.29;63.66
66945;BME280;53853;51.982;5.928;2023-04-02T09:49:30;102174.16;;;7.36;66.12
66945;BME280;53853;51.982;5.928;2023-04-02T09:52:18;102177.03;;;7.47;62.16
66945;BME280;53853;51.982;5.928;2023-04-02T09:55:18;102172.47;;;7.49;63.07
66945;BME280;53853;51.982;5.928;2023-04-02T09:57:50;102188.00;;;7.55;61.71
66945;BME280;53853;51.982;5.928;2023-04-02T10:00:35;102184.47;;;7.55;63.53
66945;BME280;53853;51.982;5.928;2023-04-02T10:03:12;102198.41;;;7.58;64.52
66945;BME280;53853;51.982;5.928;2023-04-02T10:06:04;102198.88;;;7.65;65.24
66945;BME280;53853;51.982;5.928;2023-04-02T10:08:36;102199.53;;;7.69;63.64
66945;BME280;53853;51.982;5.928;2023-04-02T10:11:09;102211.47;;;7.76;64.80
66945;BME280;53853;51.982;5.928;2023-04-02T10:13:48;102223.03;;;7.75;62.86
66945;BME280;53853;51.982;5.928;2023-04-02T10:16:24;102219.25;;;7.65;62.85
66945;BME280;53853;51.982;5.928;2023-04-02T10:19:01;102224.59;;;7.50;59.55
66945;BME280;53853;51.982;5.928;2023-04-02T10:21:40;102221.63;;;7.40;58.38
66945;BME280;53853;51.982;5.928;2023-04-02T10:24:13;102222.00;;;7.34;62.27
66945;BME280;53853;51.982;5.928;2023-04-02T10:26:53;102231.03;;;7.32;62.76
66945;BME280;53853;51.982;5.928;2023-04-02T10:29:37;102225.16;;;7.27;59.05
66945;BME280;53853;51.982;5.928;2023-04-02T10:32:17;102233.66;;;7.17;59.94
66945;BME280;53853;51.982;5.928;2023-04-02T10:34:55;102231.00;;;7.17;61.56
66945;BME280;53853;51.982;5.928;2023-04-02T10:37:47;102233.47;;;7.35;63.27
66945;BME280;53853;51.982;5.928;2023-04-02T10:40:26;102244.09;;;7.64;62.96
66945;BME280;53853;51.982;5.928;2023-04-02T10:43:26;102241.31;;;7.79;63.16
66945;BME280;53853;51.982;5.928;2023-04-02T10:46:01;102243.75;;;7.97;63.54
66945;BME280;53853;51.982;5.928;2023-04-02T10:48:39;102245.03;;;8.19;60.20
66945;BME280;53853;51.982;5.928;2023-04-02T10:51:23;102248.88;;;8.27;57.54
66945;BME280;53853;51.982;5.928;2023-04-02T10:54:04;102254.81;;;8.31;60.26
66945;BME280;53853;51.982;5.928;2023-04-02T10:56:39;102251.03;;;8.35;60.50
66945;BME280;53853;51.982;5.928;2023-04-02T10:59:16;102259.91;;;8.48;62.79
66945;BME280;53853;51.982;5.928;2023-04-02T11:01:47;102261.44;;;8.52;62.72
66945;BME280;53853;51.982;5.928;2023-04-02T11:04:22;102252.72;;;8.50;59.56
66945;BME280;53853;51.982;5.928;2023-04-02T11:06:56;102271.75;;;8.57;58.99
66945;BME280;53853;51.982;5.928;2023-04-02T11:09:33;102259.63;;;8.53;58.53
66945;BME280;53853;51.982;5.928;2023-04-02T11:12:07;102264.19;;;8.51;61.04
66945;BME280;53853;51.982;5.928;2023-04-02T11:14:42;102272.91;;;8.53;60.73
66945;BME280;53853;51.982;5.928;2023-04-02T11:17:13;102268.22;;;8.44;55.71
66945;BME280;53853;51.982;5.928;2023-04-02T11:19:44;102266.97;;;8.35;54.30
66945;BME280;53853;51.982;5.928;2023-04-02T11:22:16;102270.03;;;8.29;55.68
66945;BME280;53853;51.982;5.928;2023-04-02T11:24:49;102271.94;;;8.27;58.61
66945;BME280;53853;51.982;5.928;2023-04-02T11:27:23;102265.34;;;8.32;60.42
66945;BME280;53853;51.982;5.928;2023-04-02T11:30:01;102277.28;;;8.40;60.05
66945;BME280;53853;51.982;5.928;2023-04-02T11:32:37;102281.09;;;8.35;59.73
66945;BME280;53853;51.982;5.928;2023-04-02T11:35:25;102280.75;;;8.27;57.50
66945;BME280;53853;51.982;5.928;2023-04-02T11:37:56;102281.59;;;8.28;60.45
66945;BME280;53853;51.982;5.928;2023-04-02T11:40:46;102285.97;;;8.29;58.49
66945;BME280;53853;51.982;5.928;2023-04-02T11:46:43;102296.59;;;8.29;55.85
66945;BME280;53853;51.982;5.928;2023-04-02T11:49:36;102292.69;;;8.34;59.40
66945;BME280;53853;51.982;5.928;2023-04-02T11:52:24;102288.22;;;8.35;59.12
66945;BME280;53853;51.982;5.928;2023-04-02T11:55:00;102290.03;;;8.34;57.01
66945;BME280;53853;51.982;5.928;2023-04-02T12:00:50;102301.59;;;8.33;56.90
66945;BME280;53853;51.982;5.928;2023-04-02T12:03:36;102294.88;;;8.28;57.96
66945;BME280;53853;51.982;5.928;2023-04-02T12:06:20;102298.94;;;8.33;58.13
66945;BME280;53853;51.982;5.928;2023-04-02T12:09:00;102313.38;;;8.44;59.62
66945;BME280;53853;51.982;5.928;2023-04-02T12:11:35;102312.97;;;8.50;58.96
66945;BME280;53853;51.982;5.928;2023-04-02T12:17:16;102321.09;;;8.61;57.81
66945;BME280;53853;51.982;5.928;2023-04-02T12:19:48;102326.00;;;8.67;56.77
66945;BME280;53853;51.982;5.928;2023-04-02T12:22:21;102329.97;;;8.75;58.21
66945;BME280;53853;51.982;5.928;2023-04-02T12:24:54;102329.66;;;8.79;58.39
66945;BME280;53853;51.982;5.928;2023-04-02T12:27:27;102329.56;;;8.81;56.13
66945;BME280;53853;51.982;5.928;2023-04-02T12:30:12;102330.38;;;8.68;56.51
66945;BME280;53853;51.982;5.928;2023-04-02T12:32:45;102340.59;;;8.75;56.73
66945;BME280;53853;51.982;5.928;2023-04-02T12:35:27;102346.25;;;8.83;56.92
66945;BME280;53853;51.982;5.928;2023-04-02T12:37:57;102352.22;;;8.86;57.21
66945;BME280;53853;51.982;5.928;2023-04-02T12:40:28;102356.78;;;8.84;55.12
66945;BME280;53853;51.982;5.928;2023-04-02T12:42:58;102363.91;;;8.84;57.24
66945;BME280;53853;51.982;5.928;2023-04-02T12:45:36;102369.03;;;8.87;58.33
66945;BME280;53853;51.982;5.928;2023-04-02T12:48:10;102365.00;;;8.94;59.94
66945;BME280;53853;51.982;5.928;2023-04-02T12:50:40;102369.19;;;8.98;59.95
66945;BME280;53853;51.982;5.928;2023-04-02T12:53:18;102373.56;;;8.99;55.73
66945;BME280;53853;51.982;5.928;2023-04-02T12:55:51;102373.66;;;8.98;55.34
66945;BME280;53853;51.982;5.928;2023-04-02T12:58:28;102364.41;;;9.03;59.08
66945;BME280;53853;51.982;5.928;2023-04-02T13:01:16;102359.72;;;9.07;58.02
66945;BME280;53853;51.982;5.928;2023-04-02T13:04:02;102357.63;;;9.12;58.74
66945;BME280;53853;51.982;5.928;2023-04-02T13:06:33;102363.59;;;9.16;58.01
66945;BME280;53853;51.982;5.928;2023-04-02T13:09:05;102366.97;;;9.18;56.22
66945;BME280;53853;51.982;5.928;2023-04-02T13:11:37;102378.06;;;9.24;56.12
66945;BME280;53853;51.982;5.928;2023-04-02T13:14:14;102372.63;;;9.26;55.13
66945;BME280;53853;51.982;5.928;2023-04-02T13:16:46;102374.25;;;9.29;56.96
66945;BME280;53853;51.982;5.928;2023-04-02T13:19:28;102357.88;;;9.35;56.97
66945;BME280;53853;51.982;5.928;2023-04-02T13:22:00;102354.56;;;9.31;54.43
66945;BME280;53853;51.982;5.928;2023-04-02T13:24:32;102370.44;;;9.33;56.80
66945;BME280;53853;51.982;5.928;2023-04-02T13:27:02;102369.16;;;9.38;56.72
66945;BME280;53853;51.982;5.928;2023-04-02T13:29:34;102370.88;;;9.39;56.92
66945;BME280;53853;51.982;5.928;2023-04-02T13:32:06;102372.91;;;9.36;51.16
66945;BME280;53853;51.982;5.928;2023-04-02T13:34:43;102366.91;;;9.32;53.38
66945;BME280;53853;51.982;5.928;2023-04-02T13:37:12;102382.03;;;9.32;56.11
66945;BME280;53853;51.982;5.928;2023-04-02T13:39:42;102371.06;;;9.36;51.94
66945;BME280;53853;51.982;5.928;2023-04-02T13:42:13;102368.19;;;9.39;54.08
66945;BME280;53853;51.982;5.928;2023-04-02T13:44:43;102373.53;;;9.39;56.27
66945;BME280;53853;51.982;5.928;2023-04-02T13:47:14;102375.97;;;9.42;57.08
66945;BME280;53853;51.982;5.928;2023-04-02T13:49:46;102383.88;;;9.44;56.54
66945;BME280;53853;51.982;5.928;2023-04-02T13:52:16;102374.25;;;9.41;52.52
66945;BME280;53853;51.982;5.928;2023-04-02T13:54:48;102375.78;;;9.46;55.17
66945;BME280;53853;51.982;5.928;2023-04-02T13:57:19;102377.25;;;9.50;52.23
66945;BME280;53853;51.982;5.928;2023-04-02T13:59:49;102387.78;;;9.51;52.03
66945;BME280;53853;51.982;5.928;2023-04-02T14:02:23;102390.88;;;9.45;51.97
66945;BME280;53853;51.982;5.928;2023-04-02T14:05:03;102377.75;;;9.42;51.86